sensor_id;sensor_type;location;lat;lon;timestamp;P1;durP1;ratioP1;P2;durP2;ratioP2
239;SDS011;104;53.590;10.004;2023-12-04T00:00:55;78.53;;;26.20;;
239;SDS011;104;53.590;10.004;2023-12-04T00:03:22;68.70;;;25.90;;
239;SDS011;104;53.590;10.004;2023-12-04T00:05:49;74.90;;;26.63;;
239;SDS011;104;53.590;10.004;2023-12-04T00:08:18;68.23;;;25.53;;
239;SDS011;104;53.590;10.004;2023-12-04T00:10:45;76.57;;;24.30;;
239;SDS011;104;53.590;10.004;2023-12-04T00:13:12;71.87;;;24.77;;
239;SDS011;104;53.590;10.004;2023-12-04T00:15:39;73.40;;;25.90;;
239;SDS011;104;53.590;10.004;2023-12-04T00:18:07;74.10;;;25.50;;
239;SDS011;104;53.590;10.004;2023-12-04T00:20:34;72.33;;;26.10;;
239;SDS011;104;53.590;10.004;2023-12-04T00:23:01;68.23;;;24.40;;
239;SDS011;104;53.590;10.004;2023-12-04T00:25:30;70.03;;;27.60;;
239;SDS011;104;53.590;10.004;2023-12-04T00:27:57;66.70;;;23.93;;
239;SDS011;104;53.590;10.004;2023-12-04T00:30:25;65.60;;;24.07;;
239;SDS011;104;53.590;10.004;2023-12-04T00:32:52;81.33;;;26.47;;
239;SDS011;104;53.590;10.004;2023-12-04T00:35:19;68.67;;;24.70;;
239;SDS011;104;53.590;10.004;2023-12-04T00:37:47;69.00;;;24.50;;
239;SDS011;104;53.590;10.004;2023-12-04T00:40:14;68.27;;;25.07;;
239;SDS011;104;53.590;10.004;2023-12-04T00:42:43;65.33;;;24.30;;
239;SDS011;104;53.590;10.004;2023-12-04T00:45:10;68.27;;;25.53;;
239;SDS011;104;53.590;10.004;2023-12-04T00:47:37;65.83;;;24.87;;
239;SDS011;104;53.590;10.004;2023-12-04T00:50:05;71.07;;;25.60;;
239;SDS011;104;53.590;10.004;2023-12-04T00:52:32;72.87;;;25.23;;
239;SDS011;104;53.590;10.004;2023-12-04T00:54:59;73.93;;;24.93;;
239;SDS011;104;53.590;10.004;2023-12-04T00:57:26;68.93;;;24.30;;
239;SDS011;104;53.590;10.004;2023-12-04T00:59:55;61.13;;;22.47;;
239;SDS011;104;53.590;10.004;2023-12-04T01:02:22;75.33;;;24.90;;
239;SDS011;104;53.590;10.004;2023-12-04T01:04:50;69.00;;;24.63;;
239;SDS011;104;53.590;10.004;2023-12-04T01:07:17;68.97;;;24.70;;
239;SDS011;104;53.590;10.004;2023-12-04T01:09:44;68.47;;;23.70;;
239;SDS011;104;53.590;10.004;2023-12-04T01:12:12;62.87;;;24.10;;
239;SDS011;104;53.590;10.004;2023-12-04T01:14:39;76.63;;;25.60;;
239;SDS011;104;53.590;10.004;2023-12-04T01:17:08;72.27;;;24.37;;
239;SDS011;104;53.590;10.004;2023-12-04T01:19:35;74.80;;;23.43;;
239;SDS011;104;53.590;10.004;2023-12-04T01:22:02;69.50;;;24.63;;
239;SDS011;104;53.590;10.004;2023-12-04T01:24:32;64.37;;;24.43;;
239;SDS011;104;53.590;10.004;2023-12-04T01:26:59;76.07;;;25.10;;
239;SDS011;104;53.590;10.004;2023-12-04T01:29:27;65.60;;;24.30;;
239;SDS011;104;53.590;10.004;2023-12-04T01:31:54;71.53;;;25.50;;
239;SDS011;104;53.590;10.004;2023-12-04T01:34:22;59.20;;;23.80;;
239;SDS011;104;53.590;10.004;2023-12-04T01:36:50;62.40;;;22.47;;
239;SDS011;104;53.590;10.004;2023-12-04T01:39:17;63.17;;;22.93;;
239;SDS011;104;53.590;10.004;2023-12-04T01:41:45;59.93;;;21.60;;
239;SDS011;104;53.590;10.004;2023-12-04T01:44:12;67.67;;;22.70;;
239;SDS011;104;53.590;10.004;2023-12-04T01:46:39;66.53;;;23.97;;
239;SDS011;104;53.590;10.004;2023-12-04T01:49:06;62.20;;;24.03;;
239;SDS011;104;53.590;10.004;2023-12-04T01:51:35;64.17;;;24.10;;
239;SDS011;104;53.590;10.004;2023-12-04T01:54:03;65.40;;;22.97;;
239;SDS011;104;53.590;10.004;2023-12-04T01:56:30;65.10;;;22.93;;
239;SDS011;104;53.590;10.004;2023-12-04T01:58:58;68.90;;;24.27;;
239;SDS011;104;53.590;10.004;2023-12-04T02:01:25;64.10;;;22.10;;
239;SDS011;104;53.590;10.004;2023-12-04T02:03:53;61.53;;;22.90;;
239;SDS011;104;53.590;10.004;2023-12-04T02:06:21;59.37;;;22.00;;
239;SDS011;104;53.590;10.004;2023-12-04T02:08:49;71.20;;;23.77;;
239;SDS011;104;53.590;10.004;2023-12-04T02:11:17;52.30;;;20.17;;
239;SDS011;104;53.590;10.004;2023-12-04T02:13:44;68.23;;;24.23;;
239;SDS011;104;53.590;10.004;2023-12-04T02:16:11;56.20;;;22.60;;
239;SDS011;104;53.590;10.004;2023-12-04T02:18:41;63.13;;;23.10;;
239;SDS011;104;53.590;10.004;2023-12-04T02:21:09;72.47;;;24.50;;
239;SDS011;104;53.590;10.004;2023-12-04T02:23:36;73.00;;;24.70;;
239;SDS011;104;53.590;10.004;2023-12-04T02:26:10;71.70;;;24.17;;
239;SDS011;104;53.590;10.004;2023-12-04T02:28:41;64.83;;;23.07;;
239;SDS011;104;53.590;10.004;2023-12-04T02:31:09;64.40;;;23.70;;
239;SDS011;104;53.590;10.004;2023-12-04T02:33:37;63.37;;;22.50;;
239;SDS011;104;53.590;10.004;2023-12-04T02:36:05;66.90;;;24.13;;
239;SDS011;104;53.590;10.004;2023-12-04T02:38:33;64.10;;;22.70;;
239;SDS011;104;53.590;10.004;2023-12-04T02:41:00;61.37;;;23.13;;
239;SDS011;104;53.590;10.004;2023-12-04T02:43:29;67.27;;;24.73;;
239;SDS011;104;53.590;10.004;2023-12-04T02:45:58;65.37;;;23.17;;
239;SDS011;104;53.590;10.004;2023-12-04T02:48:25;63.20;;;23.07;;
239;SDS011;104;53.590;10.004;2023-12-04T02:53:51;59.07;;;21.13;;
239;SDS011;104;53.590;10.004;2023-12-04T02:56:18;62.40;;;23.33;;
239;SDS011;104;53.590;10.004;2023-12-04T02:58:46;60.50;;;22.87;;
239;SDS011;104;53.590;10.004;2023-12-04T03:01:13;65.50;;;22.63;;
239;SDS011;104;53.590;10.004;2023-12-04T03:03:41;61.80;;;22.77;;
239;SDS011;104;53.590;10.004;2023-12-04T03:06:08;57.73;;;21.80;;
239;SDS011;104;53.590;10.004;2023-12-04T03:08:35;64.77;;;23.00;;
239;SDS011;104;53.590;10.004;2023-12-04T03:11:02;58.43;;;22.47;;
239;SDS011;104;53.590;10.004;2023-12-04T03:13:30;66.33;;;24.10;;
239;SDS011;104;53.590;10.004;2023-12-04T03:15:58;63.40;;;23.77;;
239;SDS011;104;53.590;10.004;2023-12-04T03:18:25;64.20;;;23.50;;
239;SDS011;104;53.590;10.004;2023-12-04T03:20:53;66.90;;;24.77;;
239;SDS011;104;53.590;10.004;2023-12-04T03:23:21;69.60;;;23.57;;
239;SDS011;104;53.590;10.004;2023-12-04T03:25:48;70.33;;;24.17;;
239;SDS011;104;53.590;10.004;2023-12-04T03:28:15;73.00;;;24.07;;
239;SDS011;104;53.590;10.004;2023-12-04T03:30:42;64.77;;;23.93;;
239;SDS011;104;53.590;10.004;2023-12-04T03:33:12;67.57;;;25.53;;
239;SDS011;104;53.590;10.004;2023-12-04T03:35:39;71.23;;;23.30;;
239;SDS011;104;53.590;10.004;2023-12-04T03:38:07;65.50;;;23.63;;
239;SDS011;104;53.590;10.004;2023-12-04T03:40:34;70.10;;;25.00;;
239;SDS011;104;53.590;10.004;2023-12-04T03:43:01;61.87;;;21.83;;
239;SDS011;104;53.590;10.004;2023-12-04T03:45:29;66.30;;;24.40;;
239;SDS011;104;53.590;10.004;2023-12-04T03:47:56;67.37;;;24.23;;
239;SDS011;104;53.590;10.004;2023-12-04T03:50:25;61.13;;;23.97;;
239;SDS011;104;53.590;10.004;2023-12-04T03:52:53;71.93;;;23.30;;
239;SDS011;104;53.590;10.004;2023-12-04T03:55:21;66.23;;;24.17;;
239;SDS011;104;53.590;10.004;2023-12-04T03:57:48;66.37;;;23.37;;
239;SDS011;104;53.590;10.004;2023-12-04T04:00:19;67.07;;;23.57;;
239;SDS011;104;53.590;10.004;2023-12-04T04:02:51;76.90;;;25.20;;
239;SDS011;104;53.590;10.004;2023-12-04T04:05:18;73.23;;;23.87;;
239;SDS011;104;53.590;10.004;2023-12-04T04:07:50;68.80;;;25.17;;
239;SDS011;104;53.590;10.004;2023-12-04T04:10:17;60.77;;;23.43;;
239;SDS011;104;53.590;10.004;2023-12-04T04:12:44;65.20;;;23.83;;
239;SDS011;104;53.590;10.004;2023-12-04T04:15:12;68.73;;;24.30;;
239;SDS011;104;53.590;10.004;2023-12-04T04:17:41;59.53;;;22.77;;
239;SDS011;104;53.590;10.004;2023-12-04T04:20:14;56.40;;;21.60;;
239;SDS011;104;53.590;10.004;2023-12-04T04:22:41;66.70;;;24.40;;
239;SDS011;104;53.590;10.004;2023-12-04T04:25:13;67.10;;;24.60;;
239;SDS011;104;53.590;10.004;2023-12-04T04:27:40;67.00;;;22.73;;
239;SDS011;104;53.590;10.004;2023-12-04T04:30:08;63.37;;;23.83;;
239;SDS011;104;53.590;10.004;2023-12-04T04:32:36;65.53;;;24.10;;
239;SDS011;104;53.590;10.004;2023-12-04T04:35:03;65.10;;;23.10;;
239;SDS011;104;53.590;10.004;2023-12-04T04:37:31;64.73;;;22.70;;
239;SDS011;104;53.590;10.004;2023-12-04T04:39:58;68.97;;;24.37;;
239;SDS011;104;53.590;10.004;2023-12-04T04:42:27;64.77;;;23.77;;
239;SDS011;104;53.590;10.004;2023-12-04T04:44:54;59.30;;;23.50;;
239;SDS011;104;53.590;10.004;2023-12-04T04:47:21;61.30;;;23.27;;
239;SDS011;104;53.590;10.004;2023-12-04T04:49:49;56.27;;;22.37;;
239;SDS011;104;53.590;10.004;2023-12-04T04:52:16;70.63;;;24.67;;
239;SDS011;104;53.590;10.004;2023-12-04T04:54:45;63.13;;;23.50;;
239;SDS011;104;53.590;10.004;2023-12-04T04:57:13;63.97;;;24.77;;
239;SDS011;104;53.590;10.004;2023-12-04T04:59:42;61.50;;;22.50;;
239;SDS011;104;53.590;10.004;2023-12-04T05:02:09;63.30;;;25.47;;
239;SDS011;104;53.590;10.004;2023-12-04T05:04:36;64.40;;;23.37;;
239;SDS011;104;53.590;10.004;2023-12-04T05:07:06;66.77;;;24.30;;
239;SDS011;104;53.590;10.004;2023-12-04T05:09:33;62.90;;;23.13;;
239;SDS011;104;53.590;10.004;2023-12-04T05:12:01;68.93;;;24.60;;
239;SDS011;104;53.590;10.004;2023-12-04T05:14:28;64.83;;;23.70;;
239;SDS011;104;53.590;10.004;2023-12-04T05:16:57;67.67;;;24.40;;
239;SDS011;104;53.590;10.004;2023-12-04T05:19:25;65.00;;;23.90;;
239;SDS011;104;53.590;10.004;2023-12-04T05:21:53;63.20;;;23.20;;
239;SDS011;104;53.590;10.004;2023-12-04T05:24:20;54.50;;;22.17;;
239;SDS011;104;53.590;10.004;2023-12-04T05:26:50;55.67;;;21.63;;
239;SDS011;104;53.590;10.004;2023-12-04T05:29:19;53.30;;;21.87;;
239;SDS011;104;53.590;10.004;2023-12-04T05:31:46;60.17;;;21.77;;
239;SDS011;104;53.590;10.004;2023-12-04T05:34:15;62.03;;;23.80;;
239;SDS011;104;53.590;10.004;2023-12-04T05:36:43;55.43;;;20.77;;
239;SDS011;104;53.590;10.004;2023-12-04T05:39:12;57.33;;;21.30;;
239;SDS011;104;53.590;10.004;2023-12-04T05:41:39;55.43;;;20.77;;
239;SDS011;104;53.590;10.004;2023-12-04T05:44:07;66.23;;;23.73;;
239;SDS011;104;53.590;10.004;2023-12-04T05:46:35;58.23;;;21.20;;
239;SDS011;104;53.590;10.004;2023-12-04T05:49:02;59.60;;;22.70;;
239;SDS011;104;53.590;10.004;2023-12-04T05:51:42;61.70;;;22.03;;
239;SDS011;104;53.590;10.004;2023-12-04T05:54:19;71.20;;;23.43;;
239;SDS011;104;53.590;10.004;2023-12-04T05:57:00;61.20;;;21.47;;
239;SDS011;104;53.590;10.004;2023-12-04T05:59:28;62.03;;;22.03;;
239;SDS011;104;53.590;10.004;2023-12-04T06:02:01;59.57;;;21.70;;
239;SDS011;104;53.590;10.004;2023-12-04T06:04:30;62.30;;;22.10;;
239;SDS011;104;53.590;10.004;2023-12-04T06:07:01;63.00;;;21.10;;
239;SDS011;104;53.590;10.004;2023-12-04T06:09:29;57.37;;;20.03;;
239;SDS011;104;53.590;10.004;2023-12-04T06:11:56;75.90;;;23.57;;
239;SDS011;104;53.590;10.004;2023-12-04T06:14:33;66.00;;;23.00;;
239;SDS011;104;53.590;10.004;2023-12-04T06:17:15;66.20;;;22.53;;
239;SDS011;104;53.590;10.004;2023-12-04T06:22:31;70.20;;;23.37;;
239;SDS011;104;53.590;10.004;2023-12-04T06:24:59;64.10;;;23.30;;
239;SDS011;104;53.590;10.004;2023-12-04T06:27:26;56.47;;;22.50;;
239;SDS011;104;53.590;10.004;2023-12-04T06:29:57;60.00;;;22.17;;
239;SDS011;104;53.590;10.004;2023-12-04T06:32:24;63.97;;;24.03;;
239;SDS011;104;53.590;10.004;2023-12-04T06:34:52;79.77;;;22.67;;
239;SDS011;104;53.590;10.004;2023-12-04T07:19:18;68.67;;;23.60;;
239;SDS011;104;53.590;10.004;2023-12-04T07:21:49;61.33;;;22.20;;
239;SDS011;104;53.590;10.004;2023-12-04T07:24:16;65.33;;;25.07;;
239;SDS011;104;53.590;10.004;2023-12-04T07:55:23;60.20;;;23.20;;
239;SDS011;104;53.590;10.004;2023-12-04T07:57:50;63.53;;;23.43;;
239;SDS011;104;53.590;10.004;2023-12-04T08:00:18;59.60;;;23.43;;
239;SDS011;104;53.590;10.004;2023-12-04T08:02:47;66.73;;;24.90;;
239;SDS011;104;53.590;10.004;2023-12-04T08:07:52;64.97;;;22.60;;
239;SDS011;104;53.590;10.004;2023-12-04T08:10:24;64.50;;;24.87;;
239;SDS011;104;53.590;10.004;2023-12-04T08:12:52;60.00;;;24.20;;
239;SDS011;104;53.590;10.004;2023-12-04T08:15:19;69.20;;;25.73;;
239;SDS011;104;53.590;10.004;2023-12-04T08:17:46;72.70;;;25.07;;
239;SDS011;104;53.590;10.004;2023-12-04T08:20:14;69.13;;;25.70;;
239;SDS011;104;53.590;10.004;2023-12-04T08:22:42;79.60;;;28.10;;
239;SDS011;104;53.590;10.004;2023-12-04T08:25:10;68.53;;;26.60;;
239;SDS011;104;53.590;10.004;2023-12-04T08:27:38;70.87;;;25.10;;
239;SDS011;104;53.590;10.004;2023-12-04T08:30:06;71.93;;;25.97;;
239;SDS011;104;53.590;10.004;2023-12-04T08:32:34;73.83;;;26.80;;
239;SDS011;104;53.590;10.004;2023-12-04T08:35:01;74.50;;;27.37;;
239;SDS011;104;53.590;10.004;2023-12-04T08:37:30;71.10;;;27.00;;
239;SDS011;104;53.590;10.004;2023-12-04T08:39:57;67.47;;;24.73;;
239;SDS011;104;53.590;10.004;2023-12-04T08:42:24;73.27;;;27.00;;
239;SDS011;104;53.590;10.004;2023-12-04T08:44:53;72.07;;;25.63;;
239;SDS011;104;53.590;10.004;2023-12-04T08:47:21;76.60;;;25.60;;
239;SDS011;104;53.590;10.004;2023-12-04T08:49:48;76.43;;;27.87;;
239;SDS011;104;53.590;10.004;2023-12-04T08:52:15;71.97;;;26.80;;
239;SDS011;104;53.590;10.004;2023-12-04T08:54:42;67.03;;;25.43;;
239;SDS011;104;53.590;10.004;2023-12-04T08:57:10;73.63;;;27.43;;
239;SDS011;104;53.590;10.004;2023-12-04T08:59:37;66.03;;;25.53;;
239;SDS011;104;53.590;10.004;2023-12-04T09:02:06;82.60;;;30.83;;
239;SDS011;104;53.590;10.004;2023-12-04T09:04:33;75.40;;;27.93;;
239;SDS011;104;53.590;10.004;2023-12-04T09:07:00;74.10;;;28.50;;
239;SDS011;104;53.590;10.004;2023-12-04T09:09:28;87.50;;;29.30;;
239;SDS011;104;53.590;10.004;2023-12-04T09:11:55;84.40;;;32.17;;
239;SDS011;104;53.590;10.004;2023-12-04T09:14:22;79.10;;;29.77;;
239;SDS011;104;53.590;10.004;2023-12-04T09:16:50;66.30;;;26.73;;
239;SDS011;104;53.590;10.004;2023-12-04T09:19:19;75.07;;;28.77;;
239;SDS011;104;53.590;10.004;2023-12-04T09:21:46;72.37;;;27.70;;
239;SDS011;104;53.590;10.004;2023-12-04T09:24:14;74.97;;;26.97;;
239;SDS011;104;53.590;10.004;2023-12-04T09:26:41;68.90;;;25.63;;
239;SDS011;104;53.590;10.004;2023-12-04T09:29:10;74.53;;;27.30;;
239;SDS011;104;53.590;10.004;2023-12-04T09:31:38;77.57;;;31.67;;
239;SDS011;104;53.590;10.004;2023-12-04T09:34:07;67.40;;;26.13;;
239;SDS011;104;53.590;10.004;2023-12-04T09:36:36;62.03;;;24.77;;
239;SDS011;104;53.590;10.004;2023-12-04T09:39:04;70.73;;;25.37;;
239;SDS011;104;53.590;10.004;2023-12-04T09:41:31;66.57;;;24.67;;
239;SDS011;104;53.590;10.004;2023-12-04T09:43:59;65.47;;;26.47;;
239;SDS011;104;53.590;10.004;2023-12-04T09:46:27;70.40;;;25.97;;
239;SDS011;104;53.590;10.004;2023-12-04T09:48:57;68.50;;;25.43;;
239;SDS011;104;53.590;10.004;2023-12-04T09:51:24;76.90;;;26.53;;
239;SDS011;104;53.590;10.004;2023-12-04T09:53:55;73.33;;;26.70;;
239;SDS011;104;53.590;10.004;2023-12-04T09:56:23;70.43;;;27.60;;
239;SDS011;104;53.590;10.004;2023-12-04T09:58:52;77.07;;;27.90;;
239;SDS011;104;53.590;10.004;2023-12-04T10:01:20;77.80;;;29.30;;
239;SDS011;104;53.590;10.004;2023-12-04T10:03:47;76.70;;;28.60;;
239;SDS011;104;53.590;10.004;2023-12-04T10:06:15;64.80;;;26.17;;
239;SDS011;104;53.590;10.004;2023-12-04T10:08:43;68.80;;;25.40;;
239;SDS011;104;53.590;10.004;2023-12-04T10:11:13;57.93;;;24.03;;
239;SDS011;104;53.590;10.004;2023-12-04T10:13:40;68.60;;;26.23;;
239;SDS011;104;53.590;10.004;2023-12-04T10:16:07;70.13;;;28.73;;
239;SDS011;104;53.590;10.004;2023-12-04T10:18:35;69.17;;;27.53;;
239;SDS011;104;53.590;10.004;2023-12-04T10:21:02;60.20;;;25.17;;
239;SDS011;104;53.590;10.004;2023-12-04T10:23:36;70.17;;;27.73;;
239;SDS011;104;53.590;10.004;2023-12-04T10:26:04;66.37;;;26.60;;
239;SDS011;104;53.590;10.004;2023-12-04T10:28:34;64.00;;;24.37;;
239;SDS011;104;53.590;10.004;2023-12-04T10:31:02;58.27;;;22.90;;
239;SDS011;104;53.590;10.004;2023-12-04T10:33:32;57.27;;;23.20;;
239;SDS011;104;53.590;10.004;2023-12-04T10:36:00;53.10;;;23.40;;
239;SDS011;104;53.590;10.004;2023-12-04T10:38:29;59.37;;;22.57;;
239;SDS011;104;53.590;10.004;2023-12-04T10:40:57;52.93;;;23.60;;
239;SDS011;104;53.590;10.004;2023-12-04T10:43:42;58.77;;;24.30;;
239;SDS011;104;53.590;10.004;2023-12-04T10:46:14;53.90;;;23.27;;
239;SDS011;104;53.590;10.004;2023-12-04T10:48:42;53.43;;;21.20;;
239;SDS011;104;53.590;10.004;2023-12-04T10:51:11;53.77;;;22.27;;
239;SDS011;104;53.590;10.004;2023-12-04T10:53:40;59.23;;;24.40;;
239;SDS011;104;53.590;10.004;2023-12-04T10:56:08;61.20;;;25.33;;
239;SDS011;104;53.590;10.004;2023-12-04T10:58:37;53.50;;;22.93;;
239;SDS011;104;53.590;10.004;2023-12-04T11:01:07;54.90;;;23.50;;
239;SDS011;104;53.590;10.004;2023-12-04T11:03:38;64.70;;;27.10;;
239;SDS011;104;53.590;10.004;2023-12-04T11:06:08;55.07;;;24.50;;
239;SDS011;104;53.590;10.004;2023-12-04T11:08:37;55.57;;;23.50;;
239;SDS011;104;53.590;10.004;2023-12-04T11:11:10;51.43;;;22.97;;
239;SDS011;104;53.590;10.004;2023-12-04T11:13:40;49.77;;;20.90;;
239;SDS011;104;53.590;10.004;2023-12-04T11:16:12;57.07;;;22.50;;
239;SDS011;104;53.590;10.004;2023-12-04T11:18:41;50.67;;;21.97;;
239;SDS011;104;53.590;10.004;2023-12-04T11:21:10;55.97;;;24.40;;
239;SDS011;104;53.590;10.004;2023-12-04T11:23:38;60.93;;;23.90;;
239;SDS011;104;53.590;10.004;2023-12-04T11:26:07;50.80;;;21.40;;
239;SDS011;104;53.590;10.004;2023-12-04T11:28:35;52.30;;;19.43;;
239;SDS011;104;53.590;10.004;2023-12-04T11:31:03;51.60;;;21.40;;
239;SDS011;104;53.590;10.004;2023-12-04T11:33:35;57.53;;;23.40;;
239;SDS011;104;53.590;10.004;2023-12-04T11:36:07;58.03;;;23.40;;
239;SDS011;104;53.590;10.004;2023-12-04T11:38:35;55.93;;;23.43;;
239;SDS011;104;53.590;10.004;2023-12-04T11:44:11;61.97;;;27.10;;
239;SDS011;104;53.590;10.004;2023-12-04T11:46:41;49.03;;;21.70;;
239;SDS011;104;53.590;10.004;2023-12-04T11:49:29;61.90;;;22.33;;
239;SDS011;104;53.590;10.004;2023-12-04T11:51:57;50.07;;;21.63;;
239;SDS011;104;53.590;10.004;2023-12-04T11:54:25;51.13;;;21.57;;
239;SDS011;104;53.590;10.004;2023-12-04T11:56:57;52.00;;;21.70;;
239;SDS011;104;53.590;10.004;2023-12-04T11:59:25;49.00;;;19.97;;
239;SDS011;104;53.590;10.004;2023-12-04T12:01:53;51.03;;;21.20;;
239;SDS011;104;53.590;10.004;2023-12-04T12:04:22;44.47;;;20.00;;
239;SDS011;104;53.590;10.004;2023-12-04T12:06:51;53.60;;;21.83;;
239;SDS011;104;53.590;10.004;2023-12-04T12:09:19;48.53;;;21.13;;
239;SDS011;104;53.590;10.004;2023-12-04T12:11:47;48.33;;;21.20;;
239;SDS011;104;53.590;10.004;2023-12-04T12:14:14;46.83;;;21.40;;
239;SDS011;104;53.590;10.004;2023-12-04T12:16:42;47.23;;;20.40;;
239;SDS011;104;53.590;10.004;2023-12-04T12:19:09;45.67;;;20.73;;
239;SDS011;104;53.590;10.004;2023-12-04T12:21:36;47.20;;;20.67;;
239;SDS011;104;53.590;10.004;2023-12-04T12:24:06;45.47;;;20.60;;
239;SDS011;104;53.590;10.004;2023-12-04T12:26:34;45.73;;;19.67;;
239;SDS011;104;53.590;10.004;2023-12-04T12:29:01;49.93;;;20.10;;
239;SDS011;104;53.590;10.004;2023-12-04T12:31:29;35.80;;;17.33;;
239;SDS011;104;53.590;10.004;2023-12-04T12:59:56;29.03;;;14.20;;
239;SDS011;104;53.590;10.004;2023-12-04T13:07:35;35.50;;;15.50;;
239;SDS011;104;53.590;10.004;2023-12-04T13:10:02;37.63;;;15.20;;
239;SDS011;104;53.590;10.004;2023-12-04T13:12:30;32.00;;;14.87;;
239;SDS011;104;53.590;10.004;2023-12-04T13:14:59;33.90;;;14.83;;
239;SDS011;104;53.590;10.004;2023-12-04T13:17:26;35.90;;;15.47;;
239;SDS011;104;53.590;10.004;2023-12-04T15:16:50;51.00;;;20.83;;
239;SDS011;104;53.590;10.004;2023-12-04T15:19:26;51.77;;;21.67;;
239;SDS011;104;53.590;10.004;2023-12-04T15:22:01;55.20;;;22.40;;
239;SDS011;104;53.590;10.004;2023-12-04T15:24:30;58.80;;;21.30;;
239;SDS011;104;53.590;10.004;2023-12-04T15:26:58;51.23;;;21.47;;
239;SDS011;104;53.590;10.004;2023-12-04T15:29:24;52.03;;;21.90;;
239;SDS011;104;53.590;10.004;2023-12-04T15:31:54;56.17;;;22.70;;
239;SDS011;104;53.590;10.004;2023-12-04T15:34:20;52.50;;;22.90;;
239;SDS011;104;53.590;10.004;2023-12-04T15:36:47;54.67;;;22.80;;
239;SDS011;104;53.590;10.004;2023-12-04T15:39:14;51.57;;;23.00;;
239;SDS011;104;53.590;10.004;2023-12-04T15:41:43;59.23;;;23.70;;
239;SDS011;104;53.590;10.004;2023-12-04T15:44:10;52.00;;;22.43;;
239;SDS011;104;53.590;10.004;2023-12-04T15:46:38;58.33;;;23.47;;
239;SDS011;104;53.590;10.004;2023-12-04T15:49:08;51.97;;;21.27;;
239;SDS011;104;53.590;10.004;2023-12-04T15:51:36;52.50;;;22.27;;
239;SDS011;104;53.590;10.004;2023-12-04T15:54:04;51.40;;;22.37;;
239;SDS011;104;53.590;10.004;2023-12-04T15:56:32;46.73;;;20.00;;
239;SDS011;104;53.590;10.004;2023-12-04T15:58:59;53.60;;;22.77;;
239;SDS011;104;53.590;10.004;2023-12-04T16:01:27;54.27;;;23.10;;
239;SDS011;104;53.590;10.004;2023-12-04T16:03:57;62.87;;;22.03;;
239;SDS011;104;53.590;10.004;2023-12-04T16:06:25;46.93;;;19.60;;
239;SDS011;104;53.590;10.004;2023-12-04T16:08:53;46.20;;;19.97;;
239;SDS011;104;53.590;10.004;2023-12-04T16:11:22;48.70;;;18.30;;
239;SDS011;104;53.590;10.004;2023-12-04T16:13:50;35.67;;;16.80;;
239;SDS011;104;53.590;10.004;2023-12-04T16:16:17;40.93;;;16.80;;
239;SDS011;104;53.590;10.004;2023-12-04T16:18:45;43.77;;;17.03;;
239;SDS011;104;53.590;10.004;2023-12-04T16:21:13;42.60;;;18.27;;
239;SDS011;104;53.590;10.004;2023-12-04T16:23:42;46.43;;;18.70;;
239;SDS011;104;53.590;10.004;2023-12-04T16:26:10;41.33;;;18.37;;
239;SDS011;104;53.590;10.004;2023-12-04T16:28:37;45.20;;;19.57;;
239;SDS011;104;53.590;10.004;2023-12-04T16:31:05;44.63;;;20.67;;
239;SDS011;104;53.590;10.004;2023-12-04T16:33:33;39.53;;;18.47;;
239;SDS011;104;53.590;10.004;2023-12-04T16:36:04;42.40;;;18.47;;
239;SDS011;104;53.590;10.004;2023-12-04T16:38:32;42.97;;;19.50;;
239;SDS011;104;53.590;10.004;2023-12-04T16:41:02;45.83;;;21.20;;
239;SDS011;104;53.590;10.004;2023-12-04T16:43:29;43.53;;;20.20;;
239;SDS011;104;53.590;10.004;2023-12-04T16:45:57;55.10;;;20.77;;
239;SDS011;104;53.590;10.004;2023-12-04T16:48:24;44.10;;;20.27;;
239;SDS011;104;53.590;10.004;2023-12-04T16:50:52;44.23;;;20.53;;
239;SDS011;104;53.590;10.004;2023-12-04T16:53:19;54.00;;;20.70;;
239;SDS011;104;53.590;10.004;2023-12-04T16:55:46;49.67;;;20.20;;
239;SDS011;104;53.590;10.004;2023-12-04T16:58:15;40.00;;;17.10;;
239;SDS011;104;53.590;10.004;2023-12-04T17:00:42;45.77;;;19.77;;
239;SDS011;104;53.590;10.004;2023-12-04T17:03:09;44.43;;;19.70;;
239;SDS011;104;53.590;10.004;2023-12-04T17:05:37;44.40;;;19.73;;
239;SDS011;104;53.590;10.004;2023-12-04T17:08:04;46.03;;;20.67;;
239;SDS011;104;53.590;10.004;2023-12-04T17:10:32;42.23;;;18.50;;
239;SDS011;104;53.590;10.004;2023-12-04T17:12:59;41.87;;;18.87;;
239;SDS011;104;53.590;10.004;2023-12-04T17:15:28;51.07;;;20.57;;
239;SDS011;104;53.590;10.004;2023-12-04T17:17:55;46.43;;;20.47;;
239;SDS011;104;53.590;10.004;2023-12-04T17:20:22;47.90;;;19.97;;
239;SDS011;104;53.590;10.004;2023-12-04T17:22:49;47.00;;;19.60;;
239;SDS011;104;53.590;10.004;2023-12-04T17:25:17;44.37;;;19.97;;
239;SDS011;104;53.590;10.004;2023-12-04T17:27:44;46.53;;;20.37;;
239;SDS011;104;53.590;10.004;2023-12-04T17:30:12;47.57;;;21.37;;
239;SDS011;104;53.590;10.004;2023-12-04T17:32:40;50.63;;;21.93;;
239;SDS011;104;53.590;10.004;2023-12-04T17:35:09;54.60;;;22.70;;
239;SDS011;104;53.590;10.004;2023-12-04T17:37:37;59.23;;;23.07;;
239;SDS011;104;53.590;10.004;2023-12-04T17:40:05;54.53;;;22.83;;
239;SDS011;104;53.590;10.004;2023-12-04T17:42:34;53.37;;;22.20;;
239;SDS011;104;53.590;10.004;2023-12-04T17:45:03;47.73;;;22.60;;
239;SDS011;104;53.590;10.004;2023-12-04T17:47:30;54.30;;;22.87;;
239;SDS011;104;53.590;10.004;2023-12-04T17:49:59;51.40;;;23.23;;
239;SDS011;104;53.590;10.004;2023-12-04T17:52:26;52.77;;;23.07;;
239;SDS011;104;53.590;10.004;2023-12-04T17:54:53;52.70;;;23.43;;
239;SDS011;104;53.590;10.004;2023-12-04T17:57:21;63.33;;;24.97;;
239;SDS011;104;53.590;10.004;2023-12-04T17:59:48;56.77;;;24.10;;
239;SDS011;104;53.590;10.004;2023-12-04T18:02:16;56.87;;;25.40;;
239;SDS011;104;53.590;10.004;2023-12-04T18:04:43;62.70;;;25.20;;
239;SDS011;104;53.590;10.004;2023-12-04T18:07:12;56.43;;;23.33;;
239;SDS011;104;53.590;10.004;2023-12-04T18:09:40;54.43;;;21.90;;
239;SDS011;104;53.590;10.004;2023-12-04T18:12:07;63.27;;;25.40;;
239;SDS011;104;53.590;10.004;2023-12-04T18:14:35;66.53;;;24.87;;
239;SDS011;104;53.590;10.004;2023-12-04T18:17:02;57.67;;;24.37;;
239;SDS011;104;53.590;10.004;2023-12-04T18:19:30;63.60;;;25.53;;
239;SDS011;104;53.590;10.004;2023-12-04T18:21:57;56.40;;;24.60;;
239;SDS011;104;53.590;10.004;2023-12-04T18:24:26;60.47;;;24.40;;
239;SDS011;104;53.590;10.004;2023-12-04T18:26:54;65.03;;;25.10;;
239;SDS011;104;53.590;10.004;2023-12-04T18:29:21;65.80;;;26.20;;
239;SDS011;104;53.590;10.004;2023-12-04T18:31:49;65.87;;;26.10;;
239;SDS011;104;53.590;10.004;2023-12-04T18:34:18;61.07;;;25.30;;
239;SDS011;104;53.590;10.004;2023-12-04T18:36:46;63.40;;;25.40;;
239;SDS011;104;53.590;10.004;2023-12-04T18:39:15;78.03;;;24.90;;
239;SDS011;104;53.590;10.004;2023-12-04T18:41:47;61.83;;;27.43;;
239;SDS011;104;53.590;10.004;2023-12-04T18:44:14;67.40;;;26.43;;
239;SDS011;104;53.590;10.004;2023-12-04T18:46:42;63.13;;;24.53;;
239;SDS011;104;53.590;10.004;2023-12-04T18:49:11;69.07;;;26.40;;
239;SDS011;104;53.590;10.004;2023-12-04T18:51:38;55.47;;;24.37;;
239;SDS011;104;53.590;10.004;2023-12-04T18:54:05;58.70;;;23.50;;
239;SDS011;104;53.590;10.004;2023-12-04T18:56:32;50.73;;;23.60;;